sensor_id;sensor_type;location;lat;lon;timestamp;P1;durP1;ratioP1;P2;durP2;ratioP2
50631;SDS011;49583;45.590;-122.498;2023-05-20T00:01:13;3.20;;;2.30;;
50631;SDS011;49583;45.590;-122.498;2023-05-20T00:03:23;2.00;;;1.70;;
50631;SDS011;49583;45.590;-122.498;2023-05-20T00:05:34;2.90;;;2.30;;
50631;SDS011;49583;45.590;-122.498;2023-05-20T00:07:44;4.00;;;2.10;;
50631;SDS011;49583;45.590;-122.498;2023-05-20T00:09:54;3.30;;;2.00;;
50631;SDS011;49583;45.590;-122.498;2023-05-20T00:12:03;3.00;;;2.10;;
50631;SDS011;49583;45.590;-122.498;2023-05-20T00:14:14;5.60;;;2.20;;
50631;SDS011;49583;45.590;-122.498;2023-05-20T00:16:23;8.00;;;1.80;;
50631;SDS011;49583;45.590;-122.498;2023-05-20T00:18:33;2.30;;;2.10;;
50631;SDS011;49583;45.590;-122.498;2023-05-20T00:20:43;2.80;;;2.00;;
50631;SDS011;49583;45.590;-122.498;2023-05-20T00:22:52;3.90;;;2.20;;
50631;SDS011;49583;45.590;-122.498;2023-05-20T00:25:02;3.40;;;2.10;;
50631;SDS011;49583;45.590;-122.498;2023-05-20T00:27:12;4.00;;;1.80;;
50631;SDS011;49583;45.590;-122.498;2023-05-20T00:29:21;3.20;;;2.40;;
50631;SDS011;49583;45.590;-122.498;2023-05-20T00:31:32;6.40;;;1.90;;
50631;SDS011;49583;45.590;-122.498;2023-05-20T00:33:42;2.20;;;1.70;;
50631;SDS011;49583;45.590;-122.498;2023-05-20T00:35:52;3.50;;;2.40;;
50631;SDS011;49583;45.590;-122.498;2023-05-20T00:38:04;5.10;;;2.20;;
50631;SDS011;49583;45.590;-122.498;2023-05-20T00:40:14;3.20;;;1.70;;
50631;SDS011;49583;45.590;-122.498;2023-05-20T00:42:25;2.50;;;2.00;;
50631;SDS011;49583;45.590;-122.498;2023-05-20T00:44:35;2.20;;;2.00;;
50631;SDS011;49583;45.590;-122.498;2023-05-20T00:46:45;2.20;;;2.00;;
50631;SDS011;49583;45.590;-122.498;2023-05-20T00:48:55;4.50;;;2.10;;
50631;SDS011;49583;45.590;-122.498;2023-05-20T00:51:05;2.80;;;1.80;;
50631;SDS011;49583;45.590;-122.498;2023-05-20T00:53:15;2.60;;;2.20;;
50631;SDS011;49583;45.590;-122.498;2023-05-20T00:55:26;4.50;;;2.10;;
50631;SDS011;49583;45.590;-122.498;2023-05-20T00:57:35;6.40;;;1.90;;
50631;SDS011;49583;45.590;-122.498;2023-05-20T00:59:45;2.50;;;2.00;;
50631;SDS011;49583;45.590;-122.498;2023-05-20T01:01:55;4.00;;;1.80;;
50631;SDS011;49583;45.590;-122.498;2023-05-20T01:04:05;3.90;;;1.70;;
50631;SDS011;49583;45.590;-122.498;2023-05-20T01:06:15;3.70;;;1.60;;
50631;SDS011;49583;45.590;-122.498;2023-05-20T01:08:25;3.90;;;1.90;;
50631;SDS011;49583;45.590;-122.498;2023-05-20T01:10:35;4.00;;;2.10;;
50631;SDS011;49583;45.590;-122.498;2023-05-20T01:12:49;7.20;;;2.10;;
50631;SDS011;49583;45.590;-122.498;2023-05-20T01:15:04;3.40;;;1.80;;
50631;SDS011;49583;45.590;-122.498;2023-05-20T01:17:18;6.50;;;2.10;;
50631;SDS011;49583;45.590;-122.498;2023-05-20T01:19:34;5.80;;;2.20;;
50631;SDS011;49583;45.590;-122.498;2023-05-20T01:21:46;4.40;;;2.20;;
50631;SDS011;49583;45.590;-122.498;2023-05-20T01:23:58;4.60;;;2.10;;
50631;SDS011;49583;45.590;-122.498;2023-05-20T01:26:10;4.00;;;1.80;;
50631;SDS011;49583;45.590;-122.498;2023-05-20T01:28:19;6.80;;;2.10;;
50631;SDS011;49583;45.590;-122.498;2023-05-20T01:30:29;2.90;;;1.90;;
50631;SDS011;49583;45.590;-122.498;2023-05-20T01:34:56;3.80;;;1.70;;
50631;SDS011;49583;45.590;-122.498;2023-05-20T01:37:06;3.30;;;1.80;;
50631;SDS011;49583;45.590;-122.498;2023-05-20T01:39:16;5.00;;;2.20;;
50631;SDS011;49583;45.590;-122.498;2023-05-20T01:41:26;5.50;;;2.00;;
50631;SDS011;49583;45.590;-122.498;2023-05-20T01:43:37;4.30;;;1.90;;
50631;SDS011;49583;45.590;-122.498;2023-05-20T01:45:46;2.60;;;1.90;;
50631;SDS011;49583;45.590;-122.498;2023-05-20T01:47:58;2.90;;;2.20;;
50631;SDS011;49583;45.590;-122.498;2023-05-20T01:50:09;4.90;;;2.00;;
50631;SDS011;49583;45.590;-122.498;2023-05-20T01:52:18;3.70;;;2.40;;
50631;SDS011;49583;45.590;-122.498;2023-05-20T01:54:28;5.20;;;2.00;;
50631;SDS011;49583;45.590;-122.498;2023-05-20T01:56:38;6.00;;;2.10;;
50631;SDS011;49583;45.590;-122.498;2023-05-20T01:58:48;2.20;;;2.00;;
50631;SDS011;49583;45.590;-122.498;2023-05-20T02:03:07;5.40;;;2.30;;
50631;SDS011;49583;45.590;-122.498;2023-05-20T02:05:17;2.80;;;2.30;;
50631;SDS011;49583;45.590;-122.498;2023-05-20T02:07:26;6.80;;;2.40;;
50631;SDS011;49583;45.590;-122.498;2023-05-20T02:09:36;4.40;;;1.90;;
50631;SDS011;49583;45.590;-122.498;2023-05-20T02:11:45;2.80;;;1.90;;
50631;SDS011;49583;45.590;-122.498;2023-05-20T02:13:55;3.00;;;1.70;;
50631;SDS011;49583;45.590;-122.498;2023-05-20T02:16:04;4.40;;;2.70;;
50631;SDS011;49583;45.590;-122.498;2023-05-20T02:18:14;2.20;;;1.90;;
50631;SDS011;49583;45.590;-122.498;2023-05-20T02:20:24;2.40;;;2.20;;
50631;SDS011;49583;45.590;-122.498;2023-05-20T02:22:33;4.40;;;2.10;;
50631;SDS011;49583;45.590;-122.498;2023-05-20T02:24:42;6.20;;;1.80;;
50631;SDS011;49583;45.590;-122.498;2023-05-20T02:26:52;2.50;;;2.00;;
50631;SDS011;49583;45.590;-122.498;2023-05-20T02:29:03;2.60;;;1.70;;
50631;SDS011;49583;45.590;-122.498;2023-05-20T02:31:12;4.40;;;2.20;;
50631;SDS011;49583;45.590;-122.498;2023-05-20T02:33:25;3.00;;;2.10;;
50631;SDS011;49583;45.590;-122.498;2023-05-20T02:35:35;5.60;;;1.80;;
50631;SDS011;49583;45.590;-122.498;2023-05-20T02:37:44;5.90;;;1.90;;
50631;SDS011;49583;45.590;-122.498;2023-05-20T02:39:53;7.20;;;2.00;;
50631;SDS011;49583;45.590;-122.498;2023-05-20T02:42:03;3.80;;;2.00;;
50631;SDS011;49583;45.590;-122.498;2023-05-20T02:44:13;5.80;;;2.30;;
50631;SDS011;49583;45.590;-122.498;2023-05-20T02:46:22;4.40;;;2.10;;
50631;SDS011;49583;45.590;-122.498;2023-05-20T02:48:32;3.90;;;2.10;;
50631;SDS011;49583;45.590;-122.498;2023-05-20T02:50:41;3.10;;;2.10;;
50631;SDS011;49583;45.590;-122.498;2023-05-20T02:52:52;3.10;;;2.00;;
50631;SDS011;49583;45.590;-122.498;2023-05-20T02:55:02;5.30;;;2.00;;
50631;SDS011;49583;45.590;-122.498;2023-05-20T02:57:14;7.10;;;2.30;;
50631;SDS011;49583;45.590;-122.498;2023-05-20T02:59:23;5.50;;;1.80;;
50631;SDS011;49583;45.590;-122.498;2023-05-20T03:01:33;5.30;;;2.10;;
50631;SDS011;49583;45.590;-122.498;2023-05-20T03:03:43;8.00;;;2.50;;
50631;SDS011;49583;45.590;-122.498;2023-05-20T03:05:52;4.40;;;2.30;;
50631;SDS011;49583;45.590;-122.498;2023-05-20T03:08:02;7.50;;;2.40;;
50631;SDS011;49583;45.590;-122.498;2023-05-20T03:10:14;2.20;;;1.70;;
50631;SDS011;49583;45.590;-122.498;2023-05-20T03:12:24;6.70;;;1.60;;
50631;SDS011;49583;45.590;-122.498;2023-05-20T03:14:33;5.30;;;2.00;;
50631;SDS011;49583;45.590;-122.498;2023-05-20T03:16:43;6.00;;;1.70;;
50631;SDS011;49583;45.590;-122.498;2023-05-20T03:18:52;2.90;;;1.80;;
50631;SDS011;49583;45.590;-122.498;2023-05-20T03:21:01;2.20;;;1.70;;
50631;SDS011;49583;45.590;-122.498;2023-05-20T03:23:12;6.90;;;2.20;;
50631;SDS011;49583;45.590;-122.498;2023-05-20T03:25:23;5.30;;;2.20;;
50631;SDS011;49583;45.590;-122.498;2023-05-20T03:27:36;4.70;;;1.90;;
50631;SDS011;49583;45.590;-122.498;2023-05-20T03:29:47;2.60;;;1.60;;
50631;SDS011;49583;45.590;-122.498;2023-05-20T03:31:59;4.20;;;2.00;;
50631;SDS011;49583;45.590;-122.498;2023-05-20T03:34:08;4.00;;;2.00;;
50631;SDS011;49583;45.590;-122.498;2023-05-20T03:36:18;2.90;;;1.40;;
50631;SDS011;49583;45.590;-122.498;2023-05-20T03:38:27;4.30;;;1.90;;
50631;SDS011;49583;45.590;-122.498;2023-05-20T03:40:37;3.90;;;1.80;;
50631;SDS011;49583;45.590;-122.498;2023-05-20T03:42:46;5.30;;;1.90;;
50631;SDS011;49583;45.590;-122.498;2023-05-20T03:44:57;3.80;;;1.90;;
50631;SDS011;49583;45.590;-122.498;2023-05-20T03:49:16;4.90;;;2.20;;
50631;SDS011;49583;45.590;-122.498;2023-05-20T03:51:25;4.40;;;2.00;;
50631;SDS011;49583;45.590;-122.498;2023-05-20T03:53:40;4.90;;;2.40;;
50631;SDS011;49583;45.590;-122.498;2023-05-20T03:55:49;4.40;;;2.00;;
50631;SDS011;49583;45.590;-122.498;2023-05-20T03:57:59;3.10;;;2.10;;
50631;SDS011;49583;45.590;-122.498;2023-05-20T04:00:13;2.50;;;1.90;;
50631;SDS011;49583;45.590;-122.498;2023-05-20T04:02:25;6.60;;;2.20;;
50631;SDS011;49583;45.590;-122.498;2023-05-20T04:04:35;3.30;;;1.60;;
50631;SDS011;49583;45.590;-122.498;2023-05-20T04:06:48;9.00;;;1.80;;
50631;SDS011;49583;45.590;-122.498;2023-05-20T04:08:58;4.40;;;2.00;;
50631;SDS011;49583;45.590;-122.498;2023-05-20T04:11:08;3.50;;;2.00;;
50631;SDS011;49583;45.590;-122.498;2023-05-20T04:13:18;5.50;;;2.20;;
50631;SDS011;49583;45.590;-122.498;2023-05-20T04:15:29;3.40;;;1.80;;
50631;SDS011;49583;45.590;-122.498;2023-05-20T04:17:41;4.10;;;1.50;;
50631;SDS011;49583;45.590;-122.498;2023-05-20T04:19:53;4.00;;;2.20;;
50631;SDS011;49583;45.590;-122.498;2023-05-20T04:22:04;3.90;;;1.70;;
50631;SDS011;49583;45.590;-122.498;2023-05-20T04:24:14;4.40;;;1.90;;
50631;SDS011;49583;45.590;-122.498;2023-05-20T04:26:24;6.20;;;1.50;;
50631;SDS011;49583;45.590;-122.498;2023-05-20T04:28:34;4.20;;;1.80;;
50631;SDS011;49583;45.590;-122.498;2023-05-20T04:30:46;3.50;;;1.60;;
50631;SDS011;49583;45.590;-122.498;2023-05-20T04:32:55;4.40;;;1.80;;
50631;SDS011;49583;45.590;-122.498;2023-05-20T04:35:07;4.50;;;2.40;;
50631;SDS011;49583;45.590;-122.498;2023-05-20T04:37:20;2.80;;;1.80;;
50631;SDS011;49583;45.590;-122.498;2023-05-20T04:39:31;7.80;;;1.80;;
50631;SDS011;49583;45.590;-122.498;2023-05-20T04:41:41;4.80;;;1.80;;
50631;SDS011;49583;45.590;-122.498;2023-05-20T04:43:53;5.10;;;1.80;;
50631;SDS011;49583;45.590;-122.498;2023-05-20T04:48:12;2.40;;;1.60;;
50631;SDS011;49583;45.590;-122.498;2023-05-20T04:50:22;7.10;;;1.60;;
50631;SDS011;49583;45.590;-122.498;2023-05-20T04:52:33;6.10;;;1.90;;
50631;SDS011;49583;45.590;-122.498;2023-05-20T04:54:43;4.60;;;1.70;;
50631;SDS011;49583;45.590;-122.498;2023-05-20T04:56:53;6.70;;;1.90;;
50631;SDS011;49583;45.590;-122.498;2023-05-20T04:59:02;5.10;;;1.90;;
50631;SDS011;49583;45.590;-122.498;2023-05-20T05:01:12;6.20;;;1.80;;
50631;SDS011;49583;45.590;-122.498;2023-05-20T05:03:21;3.30;;;1.50;;
50631;SDS011;49583;45.590;-122.498;2023-05-20T05:05:31;3.30;;;2.00;;
50631;SDS011;49583;45.590;-122.498;2023-05-20T05:07:41;4.40;;;2.10;;
50631;SDS011;49583;45.590;-122.498;2023-05-20T05:09:51;6.70;;;2.30;;
50631;SDS011;49583;45.590;-122.498;2023-05-20T05:12:00;3.30;;;1.90;;
50631;SDS011;49583;45.590;-122.498;2023-05-20T05:14:09;5.50;;;1.90;;
50631;SDS011;49583;45.590;-122.498;2023-05-20T05:16:19;2.80;;;1.50;;
50631;SDS011;49583;45.590;-122.498;2023-05-20T05:18:29;5.00;;;1.70;;
50631;SDS011;49583;45.590;-122.498;2023-05-20T05:20:39;4.30;;;1.70;;
50631;SDS011;49583;45.590;-122.498;2023-05-20T05:22:49;4.70;;;1.60;;
50631;SDS011;49583;45.590;-122.498;2023-05-20T05:24:58;6.60;;;1.70;;
50631;SDS011;49583;45.590;-122.498;2023-05-20T05:27:08;10.80;;;1.90;;
50631;SDS011;49583;45.590;-122.498;2023-05-20T05:29:18;3.80;;;1.50;;
50631;SDS011;49583;45.590;-122.498;2023-05-20T05:31:28;6.20;;;1.50;;
50631;SDS011;49583;45.590;-122.498;2023-05-20T05:33:37;3.00;;;1.80;;
50631;SDS011;49583;45.590;-122.498;2023-05-20T05:35:46;8.20;;;1.90;;
50631;SDS011;49583;45.590;-122.498;2023-05-20T05:37:56;3.40;;;1.50;;
50631;SDS011;49583;45.590;-122.498;2023-05-20T05:40:07;7.10;;;1.70;;
50631;SDS011;49583;45.590;-122.498;2023-05-20T05:42:17;3.60;;;1.70;;
50631;SDS011;49583;45.590;-122.498;2023-05-20T05:44:33;2.40;;;1.30;;
50631;SDS011;49583;45.590;-122.498;2023-05-20T05:46:43;5.70;;;1.70;;
50631;SDS011;49583;45.590;-122.498;2023-05-20T05:48:54;3.90;;;1.60;;
50631;SDS011;49583;45.590;-122.498;2023-05-20T05:51:04;5.50;;;1.60;;
50631;SDS011;49583;45.590;-122.498;2023-05-20T05:53:14;4.80;;;1.60;;
50631;SDS011;49583;45.590;-122.498;2023-05-20T05:55:25;3.70;;;1.30;;
50631;SDS011;49583;45.590;-122.498;2023-05-20T05:57:36;8.00;;;1.50;;
50631;SDS011;49583;45.590;-122.498;2023-05-20T05:59:46;3.40;;;1.80;;
50631;SDS011;49583;45.590;-122.498;2023-05-20T06:01:55;2.20;;;1.30;;
50631;SDS011;49583;45.590;-122.498;2023-05-20T06:04:04;5.80;;;1.60;;
50631;SDS011;49583;45.590;-122.498;2023-05-20T06:06:15;4.10;;;1.50;;
50631;SDS011;49583;45.590;-122.498;2023-05-20T06:08:25;4.10;;;1.50;;
50631;SDS011;49583;45.590;-122.498;2023-05-20T06:10:39;5.00;;;1.70;;
50631;SDS011;49583;45.590;-122.498;2023-05-20T06:12:53;5.00;;;2.20;;
50631;SDS011;49583;45.590;-122.498;2023-05-20T06:15:04;4.80;;;1.80;;
50631;SDS011;49583;45.590;-122.498;2023-05-20T06:17:15;2.20;;;1.10;;
50631;SDS011;49583;45.590;-122.498;2023-05-20T06:19:25;6.70;;;1.70;;
50631;SDS011;49583;45.590;-122.498;2023-05-20T06:21:34;4.20;;;1.40;;
50631;SDS011;49583;45.590;-122.498;2023-05-20T06:23:44;2.50;;;1.30;;
50631;SDS011;49583;45.590;-122.498;2023-05-20T06:25:58;7.40;;;1.70;;
50631;SDS011;49583;45.590;-122.498;2023-05-20T06:28:09;6.30;;;1.60;;
50631;SDS011;49583;45.590;-122.498;2023-05-20T06:30:19;4.70;;;1.80;;
50631;SDS011;49583;45.590;-122.498;2023-05-20T06:32:28;9.00;;;1.90;;
50631;SDS011;49583;45.590;-122.498;2023-05-20T06:34:38;5.10;;;1.60;;
50631;SDS011;49583;45.590;-122.498;2023-05-20T06:36:48;4.10;;;1.50;;
50631;SDS011;49583;45.590;-122.498;2023-05-20T06:38:58;12.00;;;1.50;;
50631;SDS011;49583;45.590;-122.498;2023-05-20T06:41:08;2.10;;;1.40;;
50631;SDS011;49583;45.590;-122.498;2023-05-20T06:43:17;2.80;;;1.70;;
50631;SDS011;49583;45.590;-122.498;2023-05-20T06:45:50;5.40;;;1.30;;
50631;SDS011;49583;45.590;-122.498;2023-05-20T06:48:20;2.80;;;1.10;;
50631;SDS011;49583;45.590;-122.498;2023-05-20T06:50:29;4.10;;;1.30;;
50631;SDS011;49583;45.590;-122.498;2023-05-20T06:52:39;3.70;;;1.60;;
50631;SDS011;49583;45.590;-122.498;2023-05-20T06:54:48;2.80;;;1.40;;
50631;SDS011;49583;45.590;-122.498;2023-05-20T06:56:58;4.30;;;1.30;;
50631;SDS011;49583;45.590;-122.498;2023-05-20T06:59:07;4.80;;;1.70;;
50631;SDS011;49583;45.590;-122.498;2023-05-20T07:01:17;3.00;;;1.50;;
50631;SDS011;49583;45.590;-122.498;2023-05-20T07:03:27;5.00;;;1.10;;
50631;SDS011;49583;45.590;-122.498;2023-05-20T07:05:37;3.10;;;1.50;;
50631;SDS011;49583;45.590;-122.498;2023-05-20T07:07:47;5.10;;;1.40;;
50631;SDS011;49583;45.590;-122.498;2023-05-20T07:09:58;2.20;;;1.30;;
50631;SDS011;49583;45.590;-122.498;2023-05-20T07:12:10;2.00;;;1.60;;
50631;SDS011;49583;45.590;-122.498;2023-05-20T07:14:19;2.70;;;1.40;;
50631;SDS011;49583;45.590;-122.498;2023-05-20T07:16:30;2.90;;;1.70;;
50631;SDS011;49583;45.590;-122.498;2023-05-20T07:18:41;3.20;;;1.20;;
50631;SDS011;49583;45.590;-122.498;2023-05-20T07:20:51;7.30;;;1.40;;
50631;SDS011;49583;45.590;-122.498;2023-05-20T07:23:22;5.00;;;1.20;;
50631;SDS011;49583;45.590;-122.498;2023-05-20T07:25:33;2.50;;;1.10;;
50631;SDS011;49583;45.590;-122.498;2023-05-20T07:27:42;3.30;;;1.30;;
50631;SDS011;49583;45.590;-122.498;2023-05-20T07:29:52;4.00;;;0.90;;
50631;SDS011;49583;45.590;-122.498;2023-05-20T07:32:02;2.10;;;1.20;;
50631;SDS011;49583;45.590;-122.498;2023-05-20T07:34:12;4.00;;;1.30;;
50631;SDS011;49583;45.590;-122.498;2023-05-20T07:36:24;3.40;;;1.00;;
50631;SDS011;49583;45.590;-122.498;2023-05-20T07:38:39;4.30;;;0.90;;
50631;SDS011;49583;45.590;-122.498;2023-05-20T07:41:07;1.90;;;1.30;;
50631;SDS011;49583;45.590;-122.498;2023-05-20T07:43:17;3.90;;;1.00;;
50631;SDS011;49583;45.590;-122.498;2023-05-20T07:45:27;7.40;;;1.30;;
50631;SDS011;49583;45.590;-122.498;2023-05-20T07:47:37;4.20;;;1.70;;
50631;SDS011;49583;45.590;-122.498;2023-05-20T07:49:47;4.20;;;1.00;;
50631;SDS011;49583;45.590;-122.498;2023-05-20T07:51:57;2.40;;;0.80;;
50631;SDS011;49583;45.590;-122.498;2023-05-20T07:54:07;2.80;;;1.10;;
50631;SDS011;49583;45.590;-122.498;2023-05-20T07:56:16;1.80;;;1.00;;
50631;SDS011;49583;45.590;-122.498;2023-05-20T07:58:28;2.80;;;1.00;;
50631;SDS011;49583;45.590;-122.498;2023-05-20T08:00:37;2.40;;;1.10;;
50631;SDS011;49583;45.590;-122.498;2023-05-20T08:02:48;1.80;;;0.90;;
50631;SDS011;49583;45.590;-122.498;2023-05-20T08:05:05;2.70;;;1.30;;
50631;SDS011;49583;45.590;-122.498;2023-05-20T08:07:15;2.10;;;1.30;;
50631;SDS011;49583;45.590;-122.498;2023-05-20T08:09:29;5.60;;;1.20;;
50631;SDS011;49583;45.590;-122.498;2023-05-20T08:11:40;2.50;;;1.40;;
50631;SDS011;49583;45.590;-122.498;2023-05-20T08:13:52;3.20;;;1.00;;
50631;SDS011;49583;45.590;-122.498;2023-05-20T08:16:03;3.80;;;1.20;;
50631;SDS011;49583;45.590;-122.498;2023-05-20T08:18:13;7.20;;;1.50;;
50631;SDS011;49583;45.590;-122.498;2023-05-20T08:20:22;2.20;;;1.20;;
50631;SDS011;49583;45.590;-122.498;2023-05-20T08:22:33;5.80;;;1.00;;
50631;SDS011;49583;45.590;-122.498;2023-05-20T08:24:43;3.70;;;1.10;;
50631;SDS011;49583;45.590;-122.498;2023-05-20T08:26:53;3.50;;;1.00;;
50631;SDS011;49583;45.590;-122.498;2023-05-20T08:29:03;3.30;;;1.20;;
50631;SDS011;49583;45.590;-122.498;2023-05-20T08:31:13;2.00;;;1.00;;
50631;SDS011;49583;45.590;-122.498;2023-05-20T08:33:24;2.80;;;1.30;;
50631;SDS011;49583;45.590;-122.498;2023-05-20T08:35:36;2.10;;;0.80;;
50631;SDS011;49583;45.590;-122.498;2023-05-20T08:37:45;1.90;;;0.80;;
50631;SDS011;49583;45.590;-122.498;2023-05-20T08:39:55;3.10;;;0.80;;
50631;SDS011;49583;45.590;-122.498;2023-05-20T08:42:06;2.50;;;0.90;;
50631;SDS011;49583;45.590;-122.498;2023-05-20T08:44:18;2.40;;;1.60;;
50631;SDS011;49583;45.590;-122.498;2023-05-20T08:46:28;2.40;;;1.00;;
50631;SDS011;49583;45.590;-122.498;2023-05-20T08:50:48;3.30;;;1.10;;
50631;SDS011;49583;45.590;-122.498;2023-05-20T08:55:07;2.20;;;0.90;;
50631;SDS011;49583;45.590;-122.498;2023-05-20T08:57:19;3.50;;;1.10;;
50631;SDS011;49583;45.590;-122.498;2023-05-20T08:59:29;2.20;;;0.80;;
50631;SDS011;49583;45.590;-122.498;2023-05-20T09:01:40;3.10;;;0.90;;
50631;SDS011;49583;45.590;-122.498;2023-05-20T09:03:51;2.50;;;1.10;;
50631;SDS011;49583;45.590;-122.498;2023-05-20T09:06:04;2.50;;;1.10;;
50631;SDS011;49583;45.590;-122.498;2023-05-20T09:08:14;2.50;;;1.10;;
50631;SDS011;49583;45.590;-122.498;2023-05-20T09:10:24;3.80;;;1.10;;
50631;SDS011;49583;45.590;-122.498;2023-05-20T09:12:34;2.50;;;1.10;;
50631;SDS011;49583;45.590;-122.498;2023-05-20T09:14:43;5.00;;;0.90;;
50631;SDS011;49583;45.590;-122.498;2023-05-20T09:16:53;2.50;;;1.00;;
50631;SDS011;49583;45.590;-122.498;2023-05-20T09:19:03;4.10;;;0.90;;
50631;SDS011;49583;45.590;-122.498;2023-05-20T09:21:14;2.90;;;1.20;;
50631;SDS011;49583;45.590;-122.498;2023-05-20T09:23:23;2.00;;;0.90;;
50631;SDS011;49583;45.590;-122.498;2023-05-20T09:25:35;5.10;;;1.10;;
50631;SDS011;49583;45.590;-122.498;2023-05-20T09:27:44;4.60;;;1.00;;
50631;SDS011;49583;45.590;-122.498;2023-05-20T09:29:53;2.60;;;1.10;;
50631;SDS011;49583;45.590;-122.498;2023-05-20T09:32:03;3.60;;;1.10;;
50631;SDS011;49583;45.590;-122.498;2023-05-20T09:34:13;5.80;;;1.00;;
50631;SDS011;49583;45.590;-122.498;2023-05-20T09:36:23;4.10;;;1.40;;
50631;SDS011;49583;45.590;-122.498;2023-05-20T09:38:35;2.00;;;1.10;;
50631;SDS011;49583;45.590;-122.498;2023-05-20T09:40:45;6.20;;;1.40;;
50631;SDS011;49583;45.590;-122.498;2023-05-20T09:42:55;2.20;;;1.30;;
50631;SDS011;49583;45.590;-122.498;2023-05-20T09:45:07;2.40;;;1.20;;
50631;SDS011;49583;45.590;-122.498;2023-05-20T09:47:16;1.50;;;0.80;;
50631;SDS011;49583;45.590;-122.498;2023-05-20T09:49:26;2.40;;;1.10;;
50631;SDS011;49583;45.590;-122.498;2023-05-20T09:51:36;3.50;;;1.50;;
50631;SDS011;49583;45.590;-122.498;2023-05-20T09:53:47;2.00;;;1.00;;
50631;SDS011;49583;45.590;-122.498;2023-05-20T09:55:57;6.00;;;1.10;;
50631;SDS011;49583;45.590;-122.498;2023-05-20T09:58:07;2.00;;;1.20;;
50631;SDS011;49583;45.590;-122.498;2023-05-20T10:03:01;2.30;;;1.20;;
50631;SDS011;49583;45.590;-122.498;2023-05-20T10:05:14;3.40;;;1.10;;
50631;SDS011;49583;45.590;-122.498;2023-05-20T10:07:33;4.50;;;1.30;;
50631;SDS011;49583;45.590;-122.498;2023-05-20T10:09:56;7.30;;;1.20;;
50631;SDS011;49583;45.590;-122.498;2023-05-20T10:12:17;1.90;;;0.80;;
50631;SDS011;49583;45.590;-122.498;2023-05-20T10:14:39;3.20;;;1.10;;
50631;SDS011;49583;45.590;-122.498;2023-05-20T10:17:02;4.20;;;1.40;;
50631;SDS011;49583;45.590;-122.498;2023-05-20T10:19:29;4.30;;;0.90;;
50631;SDS011;49583;45.590;-122.498;2023-05-20T10:21:41;3.80;;;0.90;;
50631;SDS011;49583;45.590;-122.498;2023-05-20T10:23:50;1.80;;;0.90;;
50631;SDS011;49583;45.590;-122.498;2023-05-20T10:26:04;1.90;;;0.90;;
50631;SDS011;49583;45.590;-122.498;2023-05-20T10:28:14;4.90;;;1.00;;
50631;SDS011;49583;45.590;-122.498;2023-05-20T10:30:30;4.40;;;1.00;;
50631;SDS011;49583;45.590;-122.498;2023-05-20T10:32:47;4.70;;;0.80;;
50631;SDS011;49583;45.590;-122.498;2023-05-20T10:34:59;2.50;;;1.50;;
50631;SDS011;49583;45.590;-122.498;2023-05-20T10:37:19;1.90;;;0.80;;
50631;SDS011;49583;45.590;-122.498;2023-05-20T10:39:32;3.20;;;1.00;;
50631;SDS011;49583;45.590;-122.498;2023-05-20T10:41:44;3.30;;;1.00;;
50631;SDS011;49583;45.590;-122.498;2023-05-20T10:44:00;2.90;;;0.90;;
50631;SDS011;49583;45.590;-122.498;2023-05-20T10:46:16;3.00;;;1.00;;
50631;SDS011;49583;45.590;-122.498;2023-05-20T10:48:52;2.50;;;1.10;;
50631;SDS011;49583;45.590;-122.498;2023-05-20T10:51:09;3.10;;;1.00;;
50631;SDS011;49583;45.590;-122.498;2023-05-20T10:53:20;3.00;;;0.90;;
50631;SDS011;49583;45.590;-122.498;2023-05-20T10:55:47;2.70;;;1.00;;
50631;SDS011;49583;45.590;-122.498;2023-05-20T10:58:01;4.80;;;1.50;;
50631;SDS011;49583;45.590;-122.498;2023-05-20T11:00:33;1.80;;;1.10;;
50631;SDS011;49583;45.590;-122.498;2023-05-20T11:02:54;3.90;;;1.20;;
50631;SDS011;49583;45.590;-122.498;2023-05-20T11:05:04;3.30;;;1.00;;
50631;SDS011;49583;45.590;-122.498;2023-05-20T11:07:24;4.30;;;1.30;;
50631;SDS011;49583;45.590;-122.498;2023-05-20T11:09:49;1.60;;;1.00;;
50631;SDS011;49583;45.590;-122.498;2023-05-20T11:11:59;4.70;;;1.30;;
50631;SDS011;49583;45.590;-122.498;2023-05-20T11:14:08;2.70;;;1.10;;
50631;SDS011;49583;45.590;-122.498;2023-05-20T11:16:20;1.50;;;1.00;;
50631;SDS011;49583;45.590;-122.498;2023-05-20T11:18:30;5.20;;;1.30;;
50631;SDS011;49583;45.590;-122.498;2023-05-20T11:20:47;5.80;;;0.90;;
50631;SDS011;49583;45.590;-122.498;2023-05-20T11:22:58;3.10;;;1.20;;
50631;SDS011;49583;45.590;-122.498;2023-05-20T11:25:08;2.30;;;1.00;;
50631;SDS011;49583;45.590;-122.498;2023-05-20T11:27:18;4.90;;;1.00;;
50631;SDS011;49583;45.590;-122.498;2023-05-20T11:29:31;4.30;;;1.00;;
50631;SDS011;49583;45.590;-122.498;2023-05-20T11:31:42;2.70;;;1.00;;
50631;SDS011;49583;45.590;-122.498;2023-05-20T11:33:53;1.20;;;1.00;;
50631;SDS011;49583;45.590;-122.498;2023-05-20T11:36:03;3.40;;;1.00;;
50631;SDS011;49583;45.590;-122.498;2023-05-20T11:38:31;2.20;;;0.90;;
50631;SDS011;49583;45.590;-122.498;2023-05-20T11:41:01;2.50;;;0.90;;
50631;SDS011;49583;45.590;-122.498;2023-05-20T11:43:10;2.70;;;1.20;;
50631;SDS011;49583;45.590;-122.498;2023-05-20T11:45:23;2.10;;;1.10;;
50631;SDS011;49583;45.590;-122.498;2023-05-20T11:47:33;2.10;;;0.80;;
50631;SDS011;49583;45.590;-122.498;2023-05-20T11:49:42;5.30;;;0.90;;
50631;SDS011;49583;45.590;-122.498;2023-05-20T11:52:03;2.80;;;1.00;;
50631;SDS011;49583;45.590;-122.498;2023-05-20T11:54:14;2.50;;;1.30;;
50631;SDS011;49583;45.590;-122.498;2023-05-20T11:56:23;2.30;;;1.00;;
50631;SDS011;49583;45.590;-122.498;2023-05-20T11:58:34;4.60;;;1.00;;
50631;SDS011;49583;45.590;-122.498;2023-05-20T12:00:54;2.90;;;1.00;;
50631;SDS011;49583;45.590;-122.498;2023-05-20T12:03:24;5.80;;;1.00;;
50631;SDS011;49583;45.590;-122.498;2023-05-20T12:05:34;2.30;;;1.00;;
50631;SDS011;49583;45.590;-122.498;2023-05-20T12:07:43;3.70;;;0.90;;
50631;SDS011;49583;45.590;-122.498;2023-05-20T12:09:53;5.20;;;1.10;;
50631;SDS011;49583;45.590;-122.498;2023-05-20T12:12:02;4.20;;;1.40;;
50631;SDS011;49583;45.590;-122.498;2023-05-20T12:14:14;2.70;;;1.00;;
50631;SDS011;49583;45.590;-122.498;2023-05-20T12:16:24;3.40;;;0.90;;
50631;SDS011;49583;45.590;-122.498;2023-05-20T12:18:33;5.30;;;1.30;;
50631;SDS011;49583;45.590;-122.498;2023-05-20T12:20:46;1.00;;;0.90;;
50631;SDS011;49583;45.590;-122.498;2023-05-20T12:22:56;4.30;;;0.90;;
50631;SDS011;49583;45.590;-122.498;2023-05-20T12:25:09;3.20;;;1.30;;
50631;SDS011;49583;45.590;-122.498;2023-05-20T12:27:20;3.50;;;1.40;;
50631;SDS011;49583;45.590;-122.498;2023-05-20T12:29:34;3.00;;;0.90;;
50631;SDS011;49583;45.590;-122.498;2023-05-20T12:31:43;3.40;;;1.60;;
50631;SDS011;49583;45.590;-122.498;2023-05-20T12:33:56;5.50;;;1.10;;
50631;SDS011;49583;45.590;-122.498;2023-05-20T12:36:05;2.60;;;1.20;;
50631;SDS011;49583;45.590;-122.498;2023-05-20T12:38:15;4.30;;;1.10;;
50631;SDS011;49583;45.590;-122.498;2023-05-20T12:40:35;1.90;;;1.00;;
50631;SDS011;49583;45.590;-122.498;2023-05-20T12:42:53;1.80;;;1.00;;
50631;SDS011;49583;45.590;-122.498;2023-05-20T12:45:04;3.20;;;1.40;;
50631;SDS011;49583;45.590;-122.498;2023-05-20T12:47:14;1.90;;;1.40;;
50631;SDS011;49583;45.590;-122.498;2023-05-20T12:49:24;5.30;;;1.20;;
50631;SDS011;49583;45.590;-122.498;2023-05-20T12:51:34;2.60;;;1.00;;
50631;SDS011;49583;45.590;-122.498;2023-05-20T12:53:44;4.70;;;1.20;;